sensor_id;sensor_type;location;lat;lon;timestamp;temperature;humidity
46123;DHT22;31856;-35.404;149.120;2023-08-17T00:54:57;9.30;70.80
46123;DHT22;31856;-35.404;149.120;2023-08-17T00:57:28;9.40;69.40
46123;DHT22;31856;-35.404;149.120;2023-08-17T00:59:58;9.60;69.00
46123;DHT22;31856;-35.404;149.120;2023-08-17T01:02:32;9.70;66.20
46123;DHT22;31856;-35.404;149.120;2023-08-17T01:05:02;9.80;65.40
46123;DHT22;31856;-35.404;149.120;2023-08-17T01:07:32;9.80;63.60
46123;DHT22;31856;-35.404;149.120;2023-08-17T01:10:02;9.80;63.10
46123;DHT22;31856;-35.404;149.120;2023-08-17T01:12:35;10.00;64.20
46123;DHT22;31856;-35.404;149.120;2023-08-17T01:15:09;10.10;64.60
46123;DHT22;31856;-35.404;149.120;2023-08-17T01:17:52;10.30;64.30
46123;DHT22;31856;-35.404;149.120;2023-08-17T01:20:23;10.40;62.70
46123;DHT22;31856;-35.404;149.120;2023-08-17T01:22:55;10.60;62.60
46123;DHT22;31856;-35.404;149.120;2023-08-17T01:25:28;10.80;61.20
46123;DHT22;31856;-35.404;149.120;2023-08-17T01:27:57;10.80;61.20
46123;DHT22;31856;-35.404;149.120;2023-08-17T01:30:27;10.90;58.50
46123;DHT22;31856;-35.404;149.120;2023-08-17T01:32:58;10.90;57.00
46123;DHT22;31856;-35.404;149.120;2023-08-17T01:35:41;11.00;58.70
46123;DHT22;31856;-35.404;149.120;2023-08-17T01:38:14;11.10;59.70
46123;DHT22;31856;-35.404;149.120;2023-08-17T01:40:48;11.10;60.40
46123;DHT22;31856;-35.404;149.120;2023-08-17T01:43:18;11.00;60.20
46123;DHT22;31856;-35.404;149.120;2023-08-17T01:45:48;11.00;59.50
46123;DHT22;31856;-35.404;149.120;2023-08-17T01:48:18;11.00;59.70
46123;DHT22;31856;-35.404;149.120;2023-08-17T01:50:47;10.90;59.70
46123;DHT22;31856;-35.404;149.120;2023-08-17T01:53:17;10.90;59.30
46123;DHT22;31856;-35.404;149.120;2023-08-17T01:55:46;11.00;60.50
46123;DHT22;31856;-35.404;149.120;2023-08-17T01:58:18;11.10;59.80
46123;DHT22;31856;-35.404;149.120;2023-08-17T02:00:48;11.10;60.00
46123;DHT22;31856;-35.404;149.120;2023-08-17T02:03:17;11.30;60.70
46123;DHT22;31856;-35.404;149.120;2023-08-17T02:05:47;11.40;60.20
46123;DHT22;31856;-35.404;149.120;2023-08-17T02:08:18;11.60;59.90
46123;DHT22;31856;-35.404;149.120;2023-08-17T02:10:47;11.80;57.50
46123;DHT22;31856;-35.404;149.120;2023-08-17T02:13:17;11.90;58.50
46123;DHT22;31856;-35.404;149.120;2023-08-17T02:15:47;12.00;58.00
46123;DHT22;31856;-35.404;149.120;2023-08-17T02:18:17;12.20;58.40
46123;DHT22;31856;-35.404;149.120;2023-08-17T02:20:47;12.30;57.80
46123;DHT22;31856;-35.404;149.120;2023-08-17T02:23:16;12.40;57.90
46123;DHT22;31856;-35.404;149.120;2023-08-17T04:18:56;13.70;37.30
46123;DHT22;31856;-35.404;149.120;2023-08-17T04:21:25;14.10;37.80
46123;DHT22;31856;-35.404;149.120;2023-08-17T04:23:56;14.30;38.60
46123;DHT22;31856;-35.404;149.120;2023-08-17T04:26:25;14.30;36.50
46123;DHT22;31856;-35.404;149.120;2023-08-17T04:28:55;14.30;35.40
46123;DHT22;31856;-35.404;149.120;2023-08-17T04:31:24;14.30;34.60
46123;DHT22;31856;-35.404;149.120;2023-08-17T04:33:56;14.30;35.50
46123;DHT22;31856;-35.404;149.120;2023-08-17T04:36:26;14.30;36.60
46123;DHT22;31856;-35.404;149.120;2023-08-17T04:38:55;14.40;37.60
46123;DHT22;31856;-35.404;149.120;2023-08-17T04:41:28;14.40;38.00
46123;DHT22;31856;-35.404;149.120;2023-08-17T04:43:58;14.30;36.50
46123;DHT22;31856;-35.404;149.120;2023-08-17T04:46:27;14.20;36.40
46123;DHT22;31856;-35.404;149.120;2023-08-17T04:48:57;14.10;38.40
46123;DHT22;31856;-35.404;149.120;2023-08-17T04:51:26;14.00;38.90
46123;DHT22;31856;-35.404;149.120;2023-08-17T04:53:57;13.80;40.00
46123;DHT22;31856;-35.404;149.120;2023-08-17T04:56:27;13.70;40.50
46123;DHT22;31856;-35.404;149.120;2023-08-17T04:58:56;13.60;40.70
46123;DHT22;31856;-35.404;149.120;2023-08-17T05:01:26;13.60;41.60
46123;DHT22;31856;-35.404;149.120;2023-08-17T05:03:55;13.60;42.70
46123;DHT22;31856;-35.404;149.120;2023-08-17T05:06:27;13.50;43.60
46123;DHT22;31856;-35.404;149.120;2023-08-17T05:08:57;13.40;43.80
46123;DHT22;31856;-35.404;149.120;2023-08-17T05:11:27;13.30;44.10
46123;DHT22;31856;-35.404;149.120;2023-08-17T05:13:56;13.30;43.90
46123;DHT22;31856;-35.404;149.120;2023-08-17T05:16:26;13.30;43.80
46123;DHT22;31856;-35.404;149.120;2023-08-17T05:21:41;13.20;45.20
46123;DHT22;31856;-35.404;149.120;2023-08-17T05:24:10;13.20;44.90
46123;DHT22;31856;-35.404;149.120;2023-08-17T05:26:41;13.10;44.80
46123;DHT22;31856;-35.404;149.120;2023-08-17T05:29:10;13.20;45.10
46123;DHT22;31856;-35.404;149.120;2023-08-17T05:31:40;13.10;45.20
46123;DHT22;31856;-35.404;149.120;2023-08-17T05:34:09;13.20;46.20
46123;DHT22;31856;-35.404;149.120;2023-08-17T05:36:40;13.10;46.90
46123;DHT22;31856;-35.404;149.120;2023-08-17T05:39:10;13.20;46.70
46123;DHT22;31856;-35.404;149.120;2023-08-17T05:41:39;13.20;47.00
46123;DHT22;31856;-35.404;149.120;2023-08-17T05:44:09;13.20;47.20
46123;DHT22;31856;-35.404;149.120;2023-08-17T05:46:39;13.30;47.10
46123;DHT22;31856;-35.404;149.120;2023-08-17T05:49:08;13.20;47.50
46123;DHT22;31856;-35.404;149.120;2023-08-17T05:51:37;13.20;47.70
46123;DHT22;31856;-35.404;149.120;2023-08-17T05:54:07;13.10;47.30
46123;DHT22;31856;-35.404;149.120;2023-08-17T05:56:37;13.00;48.30
46123;DHT22;31856;-35.404;149.120;2023-08-17T05:59:07;12.90;47.90
46123;DHT22;31856;-35.404;149.120;2023-08-17T06:01:37;12.80;47.60
46123;DHT22;31856;-35.404;149.120;2023-08-17T06:04:06;12.80;47.60
46123;DHT22;31856;-35.404;149.120;2023-08-17T06:06:36;12.80;49.00
46123;DHT22;31856;-35.404;149.120;2023-08-17T06:09:05;12.70;48.60
46123;DHT22;31856;-35.404;149.120;2023-08-17T06:11:36;12.70;48.80
46123;DHT22;31856;-35.404;149.120;2023-08-17T06:14:06;12.70;49.10
46123;DHT22;31856;-35.404;149.120;2023-08-17T06:16:36;12.60;49.20
46123;DHT22;31856;-35.404;149.120;2023-08-17T06:19:06;12.60;49.90
46123;DHT22;31856;-35.404;149.120;2023-08-17T06:21:35;12.60;49.90
46123;DHT22;31856;-35.404;149.120;2023-08-17T06:24:05;12.60;50.00
46123;DHT22;31856;-35.404;149.120;2023-08-17T06:26:35;12.50;50.30
46123;DHT22;31856;-35.404;149.120;2023-08-17T06:29:05;12.50;50.40
46123;DHT22;31856;-35.404;149.120;2023-08-17T06:31:34;12.40;50.50
46123;DHT22;31856;-35.404;149.120;2023-08-17T06:34:05;12.40;49.70
46123;DHT22;31856;-35.404;149.120;2023-08-17T06:36:37;12.30;49.20
46123;DHT22;31856;-35.404;149.120;2023-08-17T06:39:07;12.30;49.30
46123;DHT22;31856;-35.404;149.120;2023-08-17T06:41:37;12.30;49.70
46123;DHT22;31856;-35.404;149.120;2023-08-17T06:44:06;12.30;50.20
46123;DHT22;31856;-35.404;149.120;2023-08-17T06:46:37;12.20;50.30
46123;DHT22;31856;-35.404;149.120;2023-08-17T06:49:06;12.20;49.90
46123;DHT22;31856;-35.404;149.120;2023-08-17T06:51:37;12.10;49.50
46123;DHT22;31856;-35.404;149.120;2023-08-17T06:54:07;12.00;49.90
46123;DHT22;31856;-35.404;149.120;2023-08-17T06:56:38;12.00;49.60
46123;DHT22;31856;-35.404;149.120;2023-08-17T06:59:07;12.00;49.60
46123;DHT22;31856;-35.404;149.120;2023-08-17T07:01:37;11.90;49.60
46123;DHT22;31856;-35.404;149.120;2023-08-17T07:04:06;11.90;49.10
46123;DHT22;31856;-35.404;149.120;2023-08-17T07:06:36;11.90;49.30
46123;DHT22;31856;-35.404;149.120;2023-08-17T07:09:05;11.80;49.40
46123;DHT22;31856;-35.404;149.120;2023-08-17T07:11:35;11.80;49.60
46123;DHT22;31856;-35.404;149.120;2023-08-17T07:14:04;11.80;49.60
46123;DHT22;31856;-35.404;149.120;2023-08-17T07:16:37;11.70;49.60
46123;DHT22;31856;-35.404;149.120;2023-08-17T07:19:07;11.70;50.10
46123;DHT22;31856;-35.404;149.120;2023-08-17T07:21:36;11.70;50.60
46123;DHT22;31856;-35.404;149.120;2023-08-17T07:24:13;11.60;50.60
46123;DHT22;31856;-35.404;149.120;2023-08-17T07:26:43;11.50;50.60
46123;DHT22;31856;-35.404;149.120;2023-08-17T07:29:14;11.50;51.40
46123;DHT22;31856;-35.404;149.120;2023-08-17T07:31:43;11.40;51.30
46123;DHT22;31856;-35.404;149.120;2023-08-17T07:34:14;11.40;51.60
46123;DHT22;31856;-35.404;149.120;2023-08-17T07:36:44;11.40;51.60
46123;DHT22;31856;-35.404;149.120;2023-08-17T07:39:13;11.40;52.10
46123;DHT22;31856;-35.404;149.120;2023-08-17T07:41:44;11.30;52.20
46123;DHT22;31856;-35.404;149.120;2023-08-17T07:44:14;11.30;52.30
46123;DHT22;31856;-35.404;149.120;2023-08-17T07:46:45;11.20;51.90
46123;DHT22;31856;-35.404;149.120;2023-08-17T07:49:15;11.20;52.20
46123;DHT22;31856;-35.404;149.120;2023-08-17T07:51:59;11.10;52.00
46123;DHT22;31856;-35.404;149.120;2023-08-17T07:54:28;11.10;51.70
46123;DHT22;31856;-35.404;149.120;2023-08-17T07:56:58;11.00;51.70
46123;DHT22;31856;-35.404;149.120;2023-08-17T07:59:28;11.00;51.00
46123;DHT22;31856;-35.404;149.120;2023-08-17T08:01:58;11.00;51.60
46123;DHT22;31856;-35.404;149.120;2023-08-17T08:04:27;11.00;51.50
46123;DHT22;31856;-35.404;149.120;2023-08-17T08:06:57;11.00;50.90
46123;DHT22;31856;-35.404;149.120;2023-08-17T08:09:26;11.00;50.70
46123;DHT22;31856;-35.404;149.120;2023-08-17T08:11:56;11.00;51.00
46123;DHT22;31856;-35.404;149.120;2023-08-17T08:14:25;11.00;51.20
46123;DHT22;31856;-35.404;149.120;2023-08-17T08:16:55;11.00;52.00
46123;DHT22;31856;-35.404;149.120;2023-08-17T08:19:26;11.00;52.30
46123;DHT22;31856;-35.404;149.120;2023-08-17T08:21:57;10.90;52.40
46123;DHT22;31856;-35.404;149.120;2023-08-17T08:24:27;10.90;51.80
46123;DHT22;31856;-35.404;149.120;2023-08-17T08:27:05;10.80;51.50
46123;DHT22;31856;-35.404;149.120;2023-08-17T08:29:34;10.90;51.70
46123;DHT22;31856;-35.404;149.120;2023-08-17T08:32:04;10.80;52.00
46123;DHT22;31856;-35.404;149.120;2023-08-17T08:34:34;10.80;52.30
46123;DHT22;31856;-35.404;149.120;2023-08-17T08:37:03;10.80;52.60
46123;DHT22;31856;-35.404;149.120;2023-08-17T08:39:47;10.80;53.10
46123;DHT22;31856;-35.404;149.120;2023-08-17T08:42:18;10.80;53.40
46123;DHT22;31856;-35.404;149.120;2023-08-17T08:44:49;10.80;53.70
46123;DHT22;31856;-35.404;149.120;2023-08-17T08:47:19;10.80;53.90
46123;DHT22;31856;-35.404;149.120;2023-08-17T08:50:01;10.80;54.20
46123;DHT22;31856;-35.404;149.120;2023-08-17T08:52:35;10.80;54.60
46123;DHT22;31856;-35.404;149.120;2023-08-17T08:57:37;10.60;54.50
46123;DHT22;31856;-35.404;149.120;2023-08-17T09:00:08;10.60;54.60
46123;DHT22;31856;-35.404;149.120;2023-08-17T09:02:38;10.60;54.90
46123;DHT22;31856;-35.404;149.120;2023-08-17T09:05:10;10.60;54.80
46123;DHT22;31856;-35.404;149.120;2023-08-17T09:07:40;10.60;55.00
46123;DHT22;31856;-35.404;149.120;2023-08-17T09:18:37;10.40;55.30
46123;DHT22;31856;-35.404;149.120;2023-08-17T09:21:07;10.30;55.10
46123;DHT22;31856;-35.404;149.120;2023-08-17T09:23:38;10.30;55.00
46123;DHT22;31856;-35.404;149.120;2023-08-17T09:26:09;10.30;55.50
46123;DHT22;31856;-35.404;149.120;2023-08-17T09:28:39;10.30;54.70
46123;DHT22;31856;-35.404;149.120;2023-08-17T09:31:10;10.30;54.00
46123;DHT22;31856;-35.404;149.120;2023-08-17T09:33:42;10.30;54.00
46123;DHT22;31856;-35.404;149.120;2023-08-17T09:36:13;10.30;54.30
46123;DHT22;31856;-35.404;149.120;2023-08-17T09:38:43;10.20;54.10
46123;DHT22;31856;-35.404;149.120;2023-08-17T09:41:13;10.20;54.10
46123;DHT22;31856;-35.404;149.120;2023-08-17T09:43:42;10.20;54.90
46123;DHT22;31856;-35.404;149.120;2023-08-17T09:46:12;10.20;55.20
46123;DHT22;31856;-35.404;149.120;2023-08-17T09:48:45;10.10;55.30
46123;DHT22;31856;-35.404;149.120;2023-08-17T09:51:15;10.10;55.40
46123;DHT22;31856;-35.404;149.120;2023-08-17T09:53:51;10.10;55.30
46123;DHT22;31856;-35.404;149.120;2023-08-17T09:56:26;10.00;55.20
46123;DHT22;31856;-35.404;149.120;2023-08-17T09:58:56;10.00;55.40
46123;DHT22;31856;-35.404;149.120;2023-08-17T10:01:27;10.00;55.10
46123;DHT22;31856;-35.404;149.120;2023-08-17T10:03:58;10.00;55.20
46123;DHT22;31856;-35.404;149.120;2023-08-17T10:06:29;10.00;54.70
46123;DHT22;31856;-35.404;149.120;2023-08-17T10:09:03;10.00;54.80
46123;DHT22;31856;-35.404;149.120;2023-08-17T10:11:32;9.90;54.50
46123;DHT22;31856;-35.404;149.120;2023-08-17T10:14:09;9.90;54.80
46123;DHT22;31856;-35.404;149.120;2023-08-17T10:21:52;9.80;54.60
46123;DHT22;31856;-35.404;149.120;2023-08-17T10:24:23;9.90;54.50
46123;DHT22;31856;-35.404;149.120;2023-08-17T10:26:52;9.80;54.70
46123;DHT22;31856;-35.404;149.120;2023-08-17T10:29:23;9.80;54.60
46123;DHT22;31856;-35.404;149.120;2023-08-17T10:31:53;9.80;54.90
46123;DHT22;31856;-35.404;149.120;2023-08-17T10:34:23;9.80;55.40
46123;DHT22;31856;-35.404;149.120;2023-08-17T10:36:53;9.80;55.50
46123;DHT22;31856;-35.404;149.120;2023-08-17T10:39:28;9.80;55.90
46123;DHT22;31856;-35.404;149.120;2023-08-17T10:41:58;9.80;55.70
46123;DHT22;31856;-35.404;149.120;2023-08-17T10:44:37;9.80;55.20
46123;DHT22;31856;-35.404;149.120;2023-08-17T10:50:02;9.80;55.30
46123;DHT22;31856;-35.404;149.120;2023-08-17T10:52:33;9.80;55.60
46123;DHT22;31856;-35.404;149.120;2023-08-17T10:55:05;9.80;56.00
46123;DHT22;31856;-35.404;149.120;2023-08-17T10:57:36;9.80;56.30
46123;DHT22;31856;-35.404;149.120;2023-08-17T11:02:39;9.90;56.40
46123;DHT22;31856;-35.404;149.120;2023-08-17T11:05:10;9.90;56.60
46123;DHT22;31856;-35.404;149.120;2023-08-17T11:07:43;9.90;57.10
46123;DHT22;31856;-35.404;149.120;2023-08-17T11:12:49;9.90;57.40
46123;DHT22;31856;-35.404;149.120;2023-08-17T11:15:19;9.90;56.90
46123;DHT22;31856;-35.404;149.120;2023-08-17T11:17:49;9.90;56.20
46123;DHT22;31856;-35.404;149.120;2023-08-17T11:20:19;9.90;56.10
46123;DHT22;31856;-35.404;149.120;2023-08-17T11:22:48;9.90;56.40
46123;DHT22;31856;-35.404;149.120;2023-08-17T11:25:19;9.90;56.30
46123;DHT22;31856;-35.404;149.120;2023-08-17T11:27:48;9.90;56.20
46123;DHT22;31856;-35.404;149.120;2023-08-17T11:30:20;9.90;56.00
46123;DHT22;31856;-35.404;149.120;2023-08-17T11:32:51;9.90;56.20
46123;DHT22;31856;-35.404;149.120;2023-08-17T11:35:21;9.90;56.40
46123;DHT22;31856;-35.404;149.120;2023-08-17T11:37:51;9.90;56.70
46123;DHT22;31856;-35.404;149.120;2023-08-17T11:40:21;9.90;56.90
46123;DHT22;31856;-35.404;149.120;2023-08-17T11:42:50;9.90;57.90
46123;DHT22;31856;-35.404;149.120;2023-08-17T11:45:21;9.80;57.60
46123;DHT22;31856;-35.404;149.120;2023-08-17T11:47:54;9.80;58.60
46123;DHT22;31856;-35.404;149.120;2023-08-17T11:50:24;9.80;59.80
46123;DHT22;31856;-35.404;149.120;2023-08-17T11:52:54;9.80;60.70
46123;DHT22;31856;-35.404;149.120;2023-08-17T11:55:24;9.80;60.50
46123;DHT22;31856;-35.404;149.120;2023-08-17T11:57:53;9.70;59.90
46123;DHT22;31856;-35.404;149.120;2023-08-17T12:00:23;9.70;60.40
46123;DHT22;31856;-35.404;149.120;2023-08-17T12:02:54;9.70;60.90
46123;DHT22;31856;-35.404;149.120;2023-08-17T12:05:24;9.60;61.30
46123;DHT22;31856;-35.404;149.120;2023-08-17T12:07:56;9.60;61.20
46123;DHT22;31856;-35.404;149.120;2023-08-17T12:10:28;9.60;61.60
46123;DHT22;31856;-35.404;149.120;2023-08-17T12:12:59;9.60;61.50
46123;DHT22;31856;-35.404;149.120;2023-08-17T12:15:32;9.60;61.50
46123;DHT22;31856;-35.404;149.120;2023-08-17T12:18:02;9.60;62.20
46123;DHT22;31856;-35.404;149.120;2023-08-17T12:20:32;9.50;61.40
46123;DHT22;31856;-35.404;149.120;2023-08-17T12:23:04;9.50;61.90
46123;DHT22;31856;-35.404;149.120;2023-08-17T12:25:34;9.50;61.80
46123;DHT22;31856;-35.404;149.120;2023-08-17T12:28:04;9.50;61.70
46123;DHT22;31856;-35.404;149.120;2023-08-17T12:30:34;9.50;61.80
46123;DHT22;31856;-35.404;149.120;2023-08-17T12:33:04;9.50;61.50
46123;DHT22;31856;-35.404;149.120;2023-08-17T12:35:34;9.50;61.60
46123;DHT22;31856;-35.404;149.120;2023-08-17T12:38:04;9.50;61.60
46123;DHT22;31856;-35.404;149.120;2023-08-17T12:40:33;9.50;61.80
46123;DHT22;31856;-35.404;149.120;2023-08-17T12:43:03;9.40;62.00
46123;DHT22;31856;-35.404;149.120;2023-08-17T12:45:32;9.40;62.20
46123;DHT22;31856;-35.404;149.120;2023-08-17T12:48:02;9.40;62.40
46123;DHT22;31856;-35.404;149.120;2023-08-17T12:50:32;9.40;62.30
46123;DHT22;31856;-35.404;149.120;2023-08-17T12:53:02;9.40;62.60
46123;DHT22;31856;-35.404;149.120;2023-08-17T12:55:31;9.40;62.80
46123;DHT22;31856;-35.404;149.120;2023-08-17T12:58:01;9.40;62.90
46123;DHT22;31856;-35.404;149.120;2023-08-17T13:00:31;9.40;62.80
46123;DHT22;31856;-35.404;149.120;2023-08-17T13:03:00;9.40;63.20
46123;DHT22;31856;-35.404;149.120;2023-08-17T13:05:30;9.30;63.20
46123;DHT22;31856;-35.404;149.120;2023-08-17T13:08:00;9.40;63.50
46123;DHT22;31856;-35.404;149.120;2023-08-17T13:10:30;9.30;63.40
46123;DHT22;31856;-35.404;149.120;2023-08-17T13:13:00;9.30;63.60
46123;DHT22;31856;-35.404;149.120;2023-08-17T13:15:31;9.30;63.80
46123;DHT22;31856;-35.404;149.120;2023-08-17T13:18:01;9.30;63.90
46123;DHT22;31856;-35.404;149.120;2023-08-17T13:20:31;9.30;63.90
46123;DHT22;31856;-35.404;149.120;2023-08-17T13:23:01;9.30;63.90
46123;DHT22;31856;-35.404;149.120;2023-08-17T13:25:31;9.30;64.20
46123;DHT22;31856;-35.404;149.120;2023-08-17T13:28:01;9.30;64.20
46123;DHT22;31856;-35.404;149.120;2023-08-17T13:30:31;9.30;64.50
46123;DHT22;31856;-35.404;149.120;2023-08-17T13:33:00;9.30;64.50
46123;DHT22;31856;-35.404;149.120;2023-08-17T13:35:30;9.20;65.00
46123;DHT22;31856;-35.404;149.120;2023-08-17T13:37:59;9.20;65.30
46123;DHT22;31856;-35.404;149.120;2023-08-17T13:40:32;9.20;65.80
46123;DHT22;31856;-35.404;149.120;2023-08-17T13:43:02;9.10;66.20
46123;DHT22;31856;-35.404;149.120;2023-08-17T13:45:32;9.10;66.30
46123;DHT22;31856;-35.404;149.120;2023-08-17T13:48:04;9.00;66.70
46123;DHT22;31856;-35.404;149.120;2023-08-17T13:50:37;9.00;67.00
46123;DHT22;31856;-35.404;149.120;2023-08-17T13:53:08;8.90;67.20
46123;DHT22;31856;-35.404;149.120;2023-08-17T13:55:37;8.80;67.70
46123;DHT22;31856;-35.404;149.120;2023-08-17T13:58:07;8.80;67.90
46123;DHT22;31856;-35.404;149.120;2023-08-17T14:00:38;8.70;68.20
46123;DHT22;31856;-35.404;149.120;2023-08-17T14:03:08;8.80;68.60
46123;DHT22;31856;-35.404;149.120;2023-08-17T14:05:37;8.70;68.90
46123;DHT22;31856;-35.404;149.120;2023-08-17T14:08:07;8.70;68.90
46123;DHT22;31856;-35.404;149.120;2023-08-17T14:10:41;8.70;69.00
46123;DHT22;31856;-35.404;149.120;2023-08-17T14:13:11;8.80;69.40
46123;DHT22;31856;-35.404;149.120;2023-08-17T14:15:40;8.80;68.90
46123;DHT22;31856;-35.404;149.120;2023-08-17T14:18:09;8.80;69.30
46123;DHT22;31856;-35.404;149.120;2023-08-17T14:20:39;8.80;69.30
46123;DHT22;31856;-35.404;149.120;2023-08-17T14:23:08;8.80;69.40
46123;DHT22;31856;-35.404;149.120;2023-08-17T14:25:38;8.70;69.70
46123;DHT22;31856;-35.404;149.120;2023-08-17T14:28:07;8.70;69.90
46123;DHT22;31856;-35.404;149.120;2023-08-17T14:30:37;8.70;70.20
46123;DHT22;31856;-35.404;149.120;2023-08-17T14:33:07;8.70;70.20
46123;DHT22;31856;-35.404;149.120;2023-08-17T14:35:36;8.60;70.30
46123;DHT22;31856;-35.404;149.120;2023-08-17T14:38:06;8.60;70.50
46123;DHT22;31856;-35.404;149.120;2023-08-17T14:40:37;8.60;70.70
46123;DHT22;31856;-35.404;149.120;2023-08-17T14:43:09;8.50;71.00
46123;DHT22;31856;-35.404;149.120;2023-08-17T14:45:40;8.50;71.60
46123;DHT22;31856;-35.404;149.120;2023-08-17T14:48:10;8.40;71.80
46123;DHT22;31856;-35.404;149.120;2023-08-17T14:50:39;8.40;71.80
46123;DHT22;31856;-35.404;149.120;2023-08-17T14:53:09;8.40;71.60
46123;DHT22;31856;-35.404;149.120;2023-08-17T14:55:39;8.30;71.80
46123;DHT22;31856;-35.404;149.120;2023-08-17T14:58:08;8.30;71.20
46123;DHT22;31856;-35.404;149.120;2023-08-17T15:00:38;8.30;71.10
46123;DHT22;31856;-35.404;149.120;2023-08-17T15:03:08;8.30;71.00
46123;DHT22;31856;-35.404;149.120;2023-08-17T15:05:38;8.30;71.10
46123;DHT22;31856;-35.404;149.120;2023-08-17T15:08:07;8.30;70.90
46123;DHT22;31856;-35.404;149.120;2023-08-17T15:10:37;8.30;70.80
46123;DHT22;31856;-35.404;149.120;2023-08-17T15:13:06;8.30;71.00
46123;DHT22;31856;-35.404;149.120;2023-08-17T15:15:37;8.30;71.00
46123;DHT22;31856;-35.404;149.120;2023-08-17T15:18:08;8.30;71.10
46123;DHT22;31856;-35.404;149.120;2023-08-17T15:20:39;8.20;71.20
46123;DHT22;31856;-35.404;149.120;2023-08-17T15:23:09;8.10;71.60
46123;DHT22;31856;-35.404;149.120;2023-08-17T15:25:44;8.10;71.70
46123;DHT22;31856;-35.404;149.120;2023-08-17T15:28:13;8.10;71.70
46123;DHT22;31856;-35.404;149.120;2023-08-17T15:50:14;8.00;71.90
46123;DHT22;31856;-35.404;149.120;2023-08-17T15:52:44;7.90;72.20
46123;DHT22;31856;-35.404;149.120;2023-08-17T15:55:13;7.90;72.50
46123;DHT22;31856;-35.404;149.120;2023-08-17T15:57:43;7.80;72.60
46123;DHT22;31856;-35.404;149.120;2023-08-17T16:00:13;7.80;72.60
46123;DHT22;31856;-35.404;149.120;2023-08-17T16:02:42;7.80;72.80
46123;DHT22;31856;-35.404;149.120;2023-08-17T16:05:12;7.80;73.60
46123;DHT22;31856;-35.404;149.120;2023-08-17T16:07:41;7.80;73.60
46123;DHT22;31856;-35.404;149.120;2023-08-17T16:10:11;7.80;73.60
46123;DHT22;31856;-35.404;149.120;2023-08-17T16:12:40;7.80;73.80
46123;DHT22;31856;-35.404;149.120;2023-08-17T16:15:10;7.80;74.20
46123;DHT22;31856;-35.404;149.120;2023-08-17T16:17:39;7.80;74.00
46123;DHT22;31856;-35.404;149.120;2023-08-17T16:20:09;7.80;74.00
46123;DHT22;31856;-35.404;149.120;2023-08-17T16:22:39;7.80;73.90
46123;DHT22;31856;-35.404;149.120;2023-08-17T16:25:11;7.80;74.30
46123;DHT22;31856;-35.404;149.120;2023-08-17T16:27:40;7.70;75.10
46123;DHT22;31856;-35.404;149.120;2023-08-17T16:30:11;7.70;75.30
46123;DHT22;31856;-35.404;149.120;2023-08-17T16:32:40;7.80;75.40
46123;DHT22;31856;-35.404;149.120;2023-08-17T16:35:10;7.80;76.00
46123;DHT22;31856;-35.404;149.120;2023-08-17T16:37:39;7.80;76.50
46123;DHT22;31856;-35.404;149.120;2023-08-17T16:40:09;7.80;77.00
46123;DHT22;31856;-35.404;149.120;2023-08-17T16:42:53;7.80;77.10
46123;DHT22;31856;-35.404;149.120;2023-08-17T16:45:26;7.80;77.60
46123;DHT22;31856;-35.404;149.120;2023-08-17T16:47:56;7.80;77.70
46123;DHT22;31856;-35.404;149.120;2023-08-17T16:50:26;7.80;78.10
46123;DHT22;31856;-35.404;149.120;2023-08-17T16:53:00;7.80;78.40
46123;DHT22;31856;-35.404;149.120;2023-08-17T16:55:30;7.80;78.50
46123;DHT22;31856;-35.404;149.120;2023-08-17T16:57:59;7.80;78.60
46123;DHT22;31856;-35.404;149.120;2023-08-17T17:00:29;7.80;78.90
46123;DHT22;31856;-35.404;149.120;2023-08-17T17:02:59;7.80;78.70
46123;DHT22;31856;-35.404;149.120;2023-08-17T17:05:28;7.80;78.70
46123;DHT22;31856;-35.404;149.120;2023-08-17T17:07:58;7.80;79.10
46123;DHT22;31856;-35.404;149.120;2023-08-17T17:10:27;7.80;79.00
46123;DHT22;31856;-35.404;149.120;2023-08-17T17:12:57;7.80;78.90
46123;DHT22;31856;-35.404;149.120;2023-08-17T17:15:26;7.80;79.10
46123;DHT22;31856;-35.404;149.120;2023-08-17T17:17:56;7.80;79.40
46123;DHT22;31856;-35.404;149.120;2023-08-17T17:20:27;7.80;79.50
46123;DHT22;31856;-35.404;149.120;2023-08-17T17:22:58;7.80;80.10
46123;DHT22;31856;-35.404;149.120;2023-08-17T17:25:27;7.80;80.70
46123;DHT22;31856;-35.404;149.120;2023-08-17T17:27:58;7.80;80.50
46123;DHT22;31856;-35.404;149.120;2023-08-17T17:30:28;7.80;80.70
46123;DHT22;31856;-35.404;149.120;2023-08-17T17:32:58;7.70;81.10
46123;DHT22;31856;-35.404;149.120;2023-08-17T17:35:27;7.70;81.10
46123;DHT22;31856;-35.404;149.120;2023-08-17T17:37:57;7.70;81.80
46123;DHT22;31856;-35.404;149.120;2023-08-17T17:40:28;7.70;81.70
46123;DHT22;31856;-35.404;149.120;2023-08-17T17:42:57;7.70;81.60
46123;DHT22;31856;-35.404;149.120;2023-08-17T17:45:27;7.70;81.40
46123;DHT22;31856;-35.404;149.120;2023-08-17T18:00:48;7.80;82.00
46123;DHT22;31856;-35.404;149.120;2023-08-17T18:03:18;7.80;82.70
46123;DHT22;31856;-35.404;149.120;2023-08-17T18:05:48;7.80;82.80
46123;DHT22;31856;-35.404;149.120;2023-08-17T18:08:18;7.80;82.70
46123;DHT22;31856;-35.404;149.120;2023-08-17T18:10:48;7.80;82.70
46123;DHT22;31856;-35.404;149.120;2023-08-17T18:13:17;7.80;82.40
46123;DHT22;31856;-35.404;149.120;2023-08-17T18:15:47;7.80;82.40
46123;DHT22;31856;-35.404;149.120;2023-08-17T18:18:16;7.80;82.40
46123;DHT22;31856;-35.404;149.120;2023-08-17T18:20:45;7.80;82.60
46123;DHT22;31856;-35.404;149.120;2023-08-17T18:23:16;7.80;82.60
46123;DHT22;31856;-35.404;149.120;2023-08-17T18:25:45;7.80;82.80
46123;DHT22;31856;-35.404;149.120;2023-08-17T18:28:16;7.90;82.80
46123;DHT22;31856;-35.404;149.120;2023-08-17T18:30:46;7.90;82.80
46123;DHT22;31856;-35.404;149.120;2023-08-17T18:33:16;7.90;82.80
46123;DHT22;31856;-35.404;149.120;2023-08-17T18:35:46;7.90;82.70
46123;DHT22;31856;-35.404;149.120;2023-08-17T18:38:15;7.90;82.90
46123;DHT22;31856;-35.404;149.120;2023-08-17T18:40:45;7.90;82.90
46123;DHT22;31856;-35.404;149.120;2023-08-17T18:43:17;8.00;83.00
46123;DHT22;31856;-35.404;149.120;2023-08-17T18:45:47;7.90;83.10
46123;DHT22;31856;-35.404;149.120;2023-08-17T18:48:16;7.90;83.30
46123;DHT22;31856;-35.404;149.120;2023-08-17T18:50:46;7.90;83.30
46123;DHT22;31856;-35.404;149.120;2023-08-17T18:53:16;7.90;83.40
46123;DHT22;31856;-35.404;149.120;2023-08-17T18:55:45;7.90;83.20
46123;DHT22;31856;-35.404;149.120;2023-08-17T18:58:15;7.90;83.40
46123;DHT22;31856;-35.404;149.120;2023-08-17T19:00:48;8.00;83.10